TimePDT,TemperatureF,Dew PointF,Humidity,Sea Level PressureIn,VisibilityMPH,Wind Direction,Wind SpeedMPH,Gust SpeedMPH,PrecipitationIn,Events,Conditions,WindDirDegrees,DateUTC
12:53 AM,66.9,54.0,63,30.08,10.0,Variable,3.5,-,N/A,,Overcast,0,2013-08-13 07:53:00
1:53 AM,66.0,55.0,68,30.09,10.0,Calm,Calm,-,N/A,,Mostly Cloudy,0,2013-08-13 08:53:00
2:53 AM,64.0,53.1,67,30.09,10.0,Calm,Calm,-,N/A,,Clear,0,2013-08-13 09:53:00
3:53 AM,62.1,52.0,70,30.10,10.0,SW,3.5,-,N/A,,Clear,220,2013-08-13 10:53:00
4:53 AM,61.0,53.1,75,30.10,10.0,SSW,3.5,-,N/A,,Clear,200,2013-08-13 11:53:00
5:53 AM,60.1,52.0,75,30.10,10.0,Calm,Calm,-,N/A,,Scattered Clouds,0,2013-08-13 12:53:00
6:53 AM,61.0,52.0,72,30.11,10.0,SW,3.5,-,N/A,,Scattered Clouds,230,2013-08-13 13:53:00
7:53 AM,63.0,53.1,70,30.11,10.0,Calm,Calm,-,N/A,,Clear,0,2013-08-13 14:53:00
8:53 AM,66.0,53.1,63,30.11,10.0,Calm,Calm,-,N/A,,Partly Cloudy,0,2013-08-13 15:53:00
9:53 AM,69.1,53.1,57,30.10,10.0,Variable,5.8,-,N/A,,Clear,0,2013-08-13 16:53:00
10:53 AM,71.1,52.0,51,30.09,10.0,WNW,8.1,-,N/A,,Clear,290,2013-08-13 17:53:00
11:53 AM,73.0,52.0,48,30.09,10.0,Calm,Calm,-,N/A,,Scattered Clouds,0,2013-08-13 18:53:00
12:53 PM,75.9,53.1,45,30.07,10.0,Variable,4.6,-,N/A,,Partly Cloudy,0,2013-08-13 19:53:00
1:09 PM,75.2,51.8,44,30.06,10.0,Variable,3.5,-,N/A,,Partly Cloudy,0,2013-08-13 20:09:00
1:53 PM,78.1,53.1,42,30.05,10.0,Variable,5.8,-,N/A,,Clear,0,2013-08-13 20:53:00
2:53 PM,79.0,53.1,40,30.03,10.0,Variable,4.6,-,N/A,,Clear,0,2013-08-13 21:53:00
3:53 PM,80.1,51.1,36,30.01,10.0,Calm,Calm,-,N/A,,Clear,0,2013-08-13 22:53:00
4:53 PM,82.0,48.0,30,29.99,10.0,NW,3.5,-,N/A,,Clear,320,2013-08-13 23:53:00
5:53 PM,82.0,50.0,33,29.98,10.0,NW,4.6,-,N/A,,Clear,320,2013-08-14 00:53:00
6:53 PM,78.1,53.1,42,29.96,10.0,NW,6.9,-,N/A,,Scattered Clouds,320,2013-08-14 01:53:00
7:53 PM,73.9,53.1,48,29.95,10.0,WNW,3.5,-,N/A,,Clear,300,2013-08-14 02:53:00
8:53 PM,71.1,53.1,53,29.94,10.0,NW,4.6,-,N/A,,Scattered Clouds,310,2013-08-14 03:53:00
9:53 PM,69.1,52.0,54,29.94,10.0,WNW,3.5,-,N/A,,Scattered Clouds,300,2013-08-14 04:53:00
10:53 PM,68.0,52.0,56,29.94,10.0,NW,3.5,-,N/A,,Clear,310,2013-08-14 05:53:00
11:53 PM,66.0,52.0,60,29.94,10.0,Calm,Calm,-,N/A,,Clear,0,2013-08-14 06:53:00